Time;durP1;ratioP1;P1;durP2;ratioP2;P2;SDS_P1;SDS_P2;PMS_P1;PMS_P2;Temp;Humidity;BMP_temperature;BMP_pressure;BME280_temperature;BME280_humidity;BME280_pressure;Samples;Min_cycle;Max_cycle;Signal;HPM_P1;HPM_P2
2023/06/01 00:01:47;;;;;;;4.68;3.10;;;;;;;;;;5072648;28;20390;-74
2023/06/01 00:04:13;;;;;;;6.57;3.70;;;;;;;;;;5071198;28;20070;-75
2023/06/01 00:06:39;;;;;;;9.82;3.97;;;;;;;;;;5075185;28;20025;-75
2023/06/01 00:09:06;;;;;;;4.53;3.03;;;;;;;;;;5071434;28;20025;-75
2023/06/01 00:11:32;;;;;;;6.80;3.33;;;;;;;;;;5072318;28;20103;-75
2023/06/01 00:13:58;;;;;;;6.85;3.67;;;;;;;;;;5072064;28;20480;-75
2023/06/01 00:16:24;;;;;;;5.88;3.60;;;;;;;;;;5053373;28;20693;-75
2023/06/01 00:18:56;;;;;;;4.43;2.90;;;;;;;;;;5072257;28;20020;-74
2023/06/01 00:21:22;;;;;;;5.13;3.20;;;;;;;;;;5071548;28;20679;-75
2023/06/01 00:23:49;;;;;;;4.75;3.10;;;;;;;;;;5076365;28;20024;-74
2023/06/01 00:26:15;;;;;;;8.52;3.75;;;;;;;;;;5070731;28;20052;-74
2023/06/01 00:28:41;;;;;;;5.43;3.60;;;14.80;82.40;;;;;;5082298;28;20534;-74
2023/06/01 00:31:06;;;;;;;8.20;4.40;;;14.70;83.40;;;;;;5077597;28;20056;-74
2023/06/01 00:33:32;;;;;;;6.03;3.65;;;14.60;84.30;;;;;;5078990;28;20048;-74
2023/06/01 00:35:58;;;;;;;5.22;3.22;;;14.50;85.10;;;;;;5079787;28;20384;-74
2023/06/01 00:38:23;;;;;;;6.43;3.42;;;14.40;84.70;;;;;;5062610;28;20060;-75
2023/06/01 00:40:52;;;;;;;8.05;3.67;;;14.40;85.00;;;;;;5080381;28;20119;-75
2023/06/01 00:43:18;;;;;;;6.40;3.10;;;14.30;85.30;;;;;;5078091;28;20371;-74
2023/06/01 00:45:44;;;;;;;5.15;3.33;;;14.30;85.60;;;;;;5079015;28;20106;-75
2023/06/01 00:48:12;;;;;;;6.50;3.10;;;14.20;85.70;;;;;;5079594;28;20055;-75
2023/06/01 00:50:38;;;;;;;8.38;3.75;;;14.10;86.40;;;;;;5080899;28;20688;-75
2023/06/01 00:53:10;;;;;;;5.20;3.15;;;14.10;86.50;;;;;;5070685;28;20025;-75
2023/06/01 00:55:35;;;;;;;6.38;3.63;;;14.00;86.40;;;;;;5071916;28;20102;-74
2023/06/01 00:58:02;;;;;;;5.18;3.33;;;14.00;86.60;;;;;;5074188;28;20025;-74
2023/06/01 01:00:29;;;;;;;8.23;3.97;;;13.90;86.70;;;;;;5070577;28;20036;-74
2023/06/01 01:02:56;;;;;;;7.03;3.25;;;13.90;87.10;;;;;;5071765;28;20028;-74
2023/06/01 01:05:26;;;;;;;8.32;3.58;;;13.90;87.10;;;;;;5070425;28;20029;-75
2023/06/01 01:07:57;;;;;;;6.63;3.40;;;13.90;87.40;;;;;;5071645;28;20028;-74
2023/06/01 01:10:43;;;;;;;5.35;3.17;;;13.90;87.30;;;;;;5070344;28;20020;-74
2023/06/01 01:13:22;;;;;;;5.28;3.33;;;13.90;87.10;;;;;;5068326;28;20041;-74
2023/06/01 01:16:07;;;;;;;6.85;3.63;;;14.00;87.10;;;;;;5064101;28;20036;-74
2023/06/01 01:18:54;;;;;;;7.43;3.33;;;14.00;87.10;;;;;;5053315;28;20028;-74
2023/06/01 01:21:28;;;;;;;9.80;3.20;;;14.00;87.20;;;;;;5070464;28;20047;-73
2023/06/01 01:24:31;;;;;;;5.45;3.17;;;14.00;87.20;;;;;;5071209;28;20029;-74
2023/06/01 01:27:25;;;;;;;7.18;3.15;;;14.00;87.30;;;;;;5071371;28;20167;-73
2023/06/01 01:29:54;;;;;;;5.45;3.42;;;14.00;87.50;;;;;;5060693;28;20032;-74
2023/06/01 01:32:23;;;;;;;6.35;3.30;;;13.90;87.50;;;;;;5052470;28;20028;-73
2023/06/01 01:34:51;;;;;;;7.10;3.25;;;13.90;87.80;;;;;;5071027;28;20084;-74
2023/06/01 01:37:16;;;;;;;5.50;3.20;;;13.90;87.60;;;;;;5052528;28;20028;-74
2023/06/01 01:39:42;;;;;;;6.47;3.13;;;14.00;87.70;;;;;;5073159;28;20028;-74
2023/06/01 01:42:08;;;;;;;5.18;2.88;;;14.00;87.70;;;;;;5074304;28;20032;-74
2023/06/01 01:44:34;;;;;;;6.80;3.20;;;14.00;87.80;;;;;;5074524;28;20032;-74
2023/06/01 01:47:09;;;;;;;6.78;2.88;;;14.00;87.60;;;;;;5081695;28;20052;-75
2023/06/01 01:49:42;;;;;;;4.78;2.83;;;14.00;87.70;;;;;;5074760;28;20035;-74
2023/06/01 01:52:25;;;;;;;5.20;3.00;;;13.90;87.70;;;;;;5073945;28;20059;-74
2023/06/01 01:54:51;;;;;;;7.25;3.20;;;13.90;87.50;;;;;;5067746;28;20029;-75
2023/06/01 01:57:18;;;;;;;5.55;3.00;;;13.90;87.60;;;;;;5079011;28;20390;-74
2023/06/01 01:59:47;;;;;;;7.35;3.80;;;13.90;87.90;;;;;;5074344;28;20381;-74
2023/06/01 02:02:13;;;;;;;6.63;3.03;;;13.90;87.90;;;;;;5073812;28;20032;-75
2023/06/01 02:04:43;;;;;;;6.30;2.97;;;13.90;88.30;;;;;;5076527;28;20036;-75
2023/06/01 02:07:10;;;;;;;8.40;3.28;;;13.90;88.40;;;;;;5074109;28;20477;-74
2023/06/01 02:09:36;;;;;;;5.30;2.65;;;13.80;88.50;;;;;;5074217;28;20028;-74
2023/06/01 02:12:02;;;;;;;5.30;3.00;;;13.80;88.60;;;;;;5075128;28;20097;-75
2023/06/01 02:14:27;;;;;;;9.57;3.10;;;13.80;88.80;;;;;;5073147;28;21335;-74
2023/06/01 02:16:53;;;;;;;5.10;3.15;;;13.80;89.10;;;;;;5074808;28;20029;-74
2023/06/01 02:19:20;;;;;;;4.47;3.13;;;13.70;89.10;;;;;;5074044;28;20485;-74
2023/06/01 02:21:45;;;;;;;7.40;2.92;;;13.70;89.40;;;;;;5067536;28;20078;-75
2023/06/01 02:24:12;;;;;;;4.85;2.85;;;13.60;89.50;;;;;;5072775;28;20032;-75
2023/06/01 02:26:38;;;;;;;5.00;2.50;;;13.60;89.60;;;;;;5074819;28;20052;-74
2023/06/01 02:29:05;;;;;;;6.35;3.03;;;13.50;90.10;;;;;;5085750;28;20054;-75
2023/06/01 02:31:32;;;;;;;8.60;2.92;;;13.50;90.00;;;;;;5074546;28;20104;-74
2023/06/01 02:33:58;;;;;;;7.50;3.22;;;13.40;90.00;;;;;;5073952;28;20037;-74
2023/06/01 02:36:25;;;;;;;5.28;3.00;;;13.40;90.30;;;;;;5074165;28;20037;-74
2023/06/01 02:38:50;;;;;;;10.30;3.78;;;13.30;90.50;;;;;;5076937;28;20044;-74
2023/06/01 02:41:16;;;;;;;8.30;3.38;;;13.30;90.60;;;;;;5073323;28;20037;-74
2023/06/01 02:43:42;;;;;;;6.20;3.33;;;13.20;90.80;;;;;;5073740;28;20039;-74
2023/06/01 02:46:07;;;;;;;8.13;3.00;;;13.20;90.90;;;;;;5073327;28;20509;-74
2023/06/01 02:48:33;;;;;;;6.75;3.13;;;13.20;91.00;;;;;;5073507;28;20059;-74
2023/06/01 02:50:58;;;;;;;7.85;2.88;;;15.50;95.80;;;;;;5072283;28;20052;-74
2023/06/01 02:53:27;;;;;;;7.95;3.20;;;13.20;99.90;;;;;;5073877;28;20034;-75
2023/06/01 02:55:52;;;;;;;8.02;3.05;;;13.20;99.90;;;;;;5074645;28;20043;-74
2023/06/01 02:58:18;;;;;;;10.80;3.15;;;13.20;99.90;;;;;;5076206;28;20033;-75
2023/06/01 03:00:44;;;;;;;5.95;3.03;;;;;;;;;;5073470;28;20037;-74
2023/06/01 03:03:10;;;;;;;5.68;3.40;;;;;;;;;;5037747;28;20630;-75
2023/06/01 03:05:36;;;;;;;8.80;3.25;;;13.20;91.00;;;;;;5073656;28;20409;-75
2023/06/01 03:08:02;;;;;;;6.18;3.05;;;13.20;91.40;;;;;;5073605;28;20028;-75
2023/06/01 03:10:28;;;;;;;7.32;3.58;;;13.20;91.40;;;;;;5071902;28;20036;-74
2023/06/01 03:12:53;;;;;;;9.52;3.50;;;13.20;91.80;;;;;;5076794;28;20111;-74
2023/06/01 03:15:19;;;;;;;6.38;3.20;;;13.10;91.60;;;;;;5072096;28;20020;-74
2023/06/01 03:17:45;;;;;;;5.65;3.15;;;13.10;91.70;;;;;;5055754;28;20032;-74
2023/06/01 03:20:14;;;;;;;6.03;3.03;;;13.00;91.80;;;;;;5071954;28;20486;-74
2023/06/01 03:22:46;;;;;;;6.20;2.93;;;13.00;91.90;;;;;;5073223;28;20024;-74
2023/06/01 03:25:12;;;;;;;3.95;2.75;;;13.00;92.00;;;;;;5071891;28;20266;-74
2023/06/01 03:27:41;;;;;;;6.38;3.10;;;13.00;92.10;;;;;;5085663;28;20044;-74
2023/06/01 03:30:10;;;;;;;6.60;3.20;;;13.00;92.10;;;;;;5081103;28;20025;-74
2023/06/01 03:32:43;;;;;;;6.20;2.97;;;13.00;92.20;;;;;;5070374;28;20037;-74
2023/06/01 03:35:11;;;;;;;7.47;2.83;;;13.00;92.20;;;;;;5063388;28;20124;-74
2023/06/01 03:37:38;;;;;;;6.80;3.20;;;12.90;92.40;;;;;;5073056;28;20029;-75
2023/06/01 03:40:10;;;;;;;5.65;3.10;;;12.90;92.40;;;;;;5075023;28;20546;-73
2023/06/01 03:42:41;;;;;;;6.25;2.95;;;12.90;92.50;;;;;;5060086;28;20101;-74
2023/06/01 03:45:08;;;;;;;6.00;3.38;;;13.00;92.60;;;;;;5074105;28;20025;-74
2023/06/01 03:47:34;;;;;;;7.43;2.80;;;13.00;92.70;;;;;;5071554;28;20035;-74
2023/06/01 03:50:03;;;;;;;6.65;3.25;;;12.90;92.80;;;;;;5072201;28;20025;-74
2023/06/01 03:52:29;;;;;;;6.43;3.08;;;12.90;92.90;;;;;;5073214;28;20032;-72
2023/06/01 03:54:56;;;;;;;6.07;3.20;;;12.90;93.10;;;;;;5082694;28;20020;-72
2023/06/01 03:57:22;;;;;;;7.53;2.88;;;13.00;93.20;;;;;;5065217;28;20024;-73
2023/06/01 03:59:48;;;;;;;5.45;3.13;;;12.90;93.30;;;;;;5079681;28;20108;-73
2023/06/01 04:02:14;;;;;;;5.00;3.15;;;13.00;93.30;;;;;;5077923;28;20051;-73
2023/06/01 04:04:40;;;;;;;6.10;3.00;;;13.00;93.30;;;;;;5081820;28;20077;-73
2023/06/01 04:07:06;;;;;;;6.57;2.70;;;13.00;93.30;;;;;;5066092;28;20155;-73
2023/06/01 04:09:32;;;;;;;5.22;2.53;;;13.00;93.40;;;;;;5075398;28;20028;-73
2023/06/01 04:11:58;;;;;;;4.95;2.72;;;13.10;93.50;;;;;;5080065;28;20040;-73
2023/06/01 04:14:23;;;;;;;5.93;3.30;;;13.10;93.50;;;;;;5071106;28;20202;-73
2023/06/01 04:16:49;;;;;;;5.15;2.80;;;13.10;93.50;;;;;;5071304;28;20389;-73
2023/06/01 04:19:15;;;;;;;5.25;2.90;;;13.20;93.50;;;;;;5070776;28;20037;-73
2023/06/01 04:21:41;;;;;;;5.82;2.80;;;13.20;93.60;;;;;;5054313;28;20021;-73
2023/06/01 04:24:06;;;;;;;6.50;2.75;;;13.20;93.70;;;;;;5070699;28;20031;-73
2023/06/01 04:26:32;;;;;;;6.05;3.10;;;13.20;93.70;;;;;;5071993;28;20024;-73
2023/06/01 04:28:58;;;;;;;5.28;2.75;;;13.20;93.80;;;;;;5084268;28;20477;-73
2023/06/01 04:31:24;;;;;;;5.90;2.95;;;13.30;94.30;;;;;;5071026;28;20127;-73
2023/06/01 04:33:53;;;;;;;5.53;2.92;;;13.30;94.40;;;;;;5071461;28;20036;-74
2023/06/01 04:36:22;;;;;;;5.07;2.70;;;13.40;94.50;;;;;;5071109;28;20422;-73
2023/06/01 04:38:53;;;;;;;6.07;3.08;;;13.40;94.40;;;;;;5071424;28;20028;-72
2023/06/01 04:41:21;;;;;;;6.72;4.00;;;13.50;94.40;;;;;;5070976;28;20041;-74
2023/06/01 04:43:52;;;;;;;9.85;3.50;;;13.60;94.30;;;;;;5071474;28;20032;-73
2023/06/01 04:46:23;;;;;;;8.48;3.47;;;13.70;94.20;;;;;;5070851;28;20033;-74
2023/06/01 04:48:51;;;;;;;6.10;3.30;;;13.80;94.00;;;;;;5070960;28;20108;-73
2023/06/01 04:51:18;;;;;;;6.18;2.75;;;13.90;94.00;;;;;;5070509;28;20072;-73
2023/06/01 04:53:43;;;;;;;4.97;3.40;;;14.00;93.90;;;;;;5071304;28;20081;-72
2023/06/01 04:56:10;;;;;;;5.30;3.17;;;14.10;93.80;;;;;;5074259;28;20123;-73
2023/06/01 04:58:35;;;;;;;4.40;2.95;;;14.20;93.80;;;;;;5072202;28;20112;-73
2023/06/01 05:01:01;;;;;;;7.30;3.00;;;14.30;93.90;;;;;;5071602;28;20028;-73
2023/06/01 05:03:27;;;;;;;5.10;3.00;;;14.40;93.60;;;;;;5069872;28;20659;-73
2023/06/01 05:05:52;;;;;;;4.90;3.10;;;14.50;93.20;;;;;;5071844;28;20033;-74
2023/06/01 05:08:18;;;;;;;8.90;3.70;;;14.60;93.10;;;;;;5070478;28;20028;-73
2023/06/01 05:10:43;;;;;;;6.47;3.45;;;14.70;93.20;;;;;;5071634;28;20111;-73
2023/06/01 05:13:09;;;;;;;7.32;3.60;;;14.80;93.30;;;;;;5069577;28;20025;-73
2023/06/01 05:15:34;;;;;;;6.80;3.30;;;14.90;93.00;;;;;;5071549;28;20033;-74
2023/06/01 05:18:00;;;;;;;8.88;3.50;;;15.00;93.00;;;;;;5053136;28;20028;-73
2023/06/01 05:20:26;;;;;;;10.82;4.38;;;15.10;93.00;;;;;;5070126;28;20028;-73
2023/06/01 05:22:51;;;;;;;9.63;4.18;;;15.20;93.10;;;;;;5071397;28;20170;-74
2023/06/01 05:25:17;;;;;;;6.57;3.40;;;15.30;92.70;;;;;;5070440;28;20103;-73
2023/06/01 05:27:43;;;;;;;7.70;3.88;;;15.40;92.40;;;;;;5074591;28;20027;-73
2023/06/01 05:30:09;;;;;;;8.80;3.70;;;15.40;92.30;;;;;;5079327;28;20028;-74
2023/06/01 05:32:34;;;;;;;8.88;4.10;;;15.50;92.30;;;;;;5070727;28;20525;-73
2023/06/01 05:35:00;;;;;;;9.10;4.55;;;15.60;92.30;;;;;;5070928;28;20059;-73
2023/06/01 05:37:26;;;;;;;9.95;4.60;;;15.80;92.20;;;;;;5070314;28;20031;-73
2023/06/01 05:39:51;;;;;;;8.43;3.97;;;15.90;92.00;;;;;;5070673;28;20362;-73
2023/06/01 05:42:17;;;;;;;6.97;3.97;;;16.00;91.70;;;;;;5070576;28;20126;-74
2023/06/01 05:44:42;;;;;;;10.05;3.95;;;16.20;91.60;;;;;;5070665;28;20032;-73
2023/06/01 05:47:08;;;;;;;9.40;4.05;;;16.30;91.40;;;;;;5070285;28;20519;-73
2023/06/01 05:49:35;;;;;;;13.85;5.00;;;16.40;91.30;;;;;;5052487;28;20043;-73
2023/06/01 05:52:01;;;;;;;8.60;3.95;;;16.50;91.10;;;;;;5070543;28;20053;-73
2023/06/01 05:54:26;;;;;;;10.27;4.10;;;16.50;91.00;;;;;;5069869;28;20039;-74
2023/06/01 05:56:52;;;;;;;7.70;3.78;;;16.60;90.90;;;;;;5075580;28;20036;-73
2023/06/01 05:59:17;;;;;;;7.63;3.95;;;16.70;91.00;;;;;;5069593;28;20104;-74
2023/06/01 06:01:44;;;;;;;6.63;3.80;;;16.80;90.50;;;;;;5066606;28;20040;-75
2023/06/01 06:04:10;;;;;;;9.77;3.47;;;17.00;90.10;;;;;;5060743;28;20103;-74
2023/06/01 06:06:36;;;;;;;9.27;3.10;;;17.10;88.90;;;;;;5070663;28;20128;-73
2023/06/01 06:09:02;;;;;;;9.63;2.92;;;17.10;89.00;;;;;;5070136;28;20120;-73
2023/06/01 06:11:28;;;;;;;7.05;3.58;;;17.20;88.30;;;;;;5052198;28;20139;-79
2023/06/01 06:13:53;;;;;;;7.35;3.47;;;17.30;88.00;;;;;;5070764;28;20505;-73
2023/06/01 06:16:19;;;;;;;9.98;3.58;;;17.30;87.30;;;;;;5070101;28;20021;-73
2023/06/01 06:18:45;;;;;;;9.18;3.25;;;17.40;87.60;;;;;;5070326;28;20025;-70
2023/06/01 06:21:10;;;;;;;9.60;3.30;;;17.50;87.20;;;;;;5069726;28;20041;-73
2023/06/01 06:23:37;;;;;;;5.60;3.10;;;17.50;87.20;;;;;;5069890;28;20064;-70
2023/06/01 06:26:02;;;;;;;7.30;3.80;;;17.60;87.70;;;;;;5073107;28;20444;-71
2023/06/01 06:28:28;;;;;;;8.75;4.07;;;17.70;88.40;;;;;;5083352;28;20062;-70
2023/06/01 06:30:54;;;;;;;6.22;4.07;;;17.80;88.30;;;;;;5076806;28;20036;-70
2023/06/01 06:33:20;;;;;;;6.22;3.33;;;18.00;87.90;;;;;;5072963;28;20107;-70
2023/06/01 06:35:45;;;;;;;9.95;3.83;;;18.00;87.60;;;;;;5070009;28;20025;-69
2023/06/01 06:38:13;;;;;;;10.15;4.25;;;18.10;87.30;;;;;;5063881;28;20100;-71
2023/06/01 06:40:38;;;;;;;8.52;4.15;;;18.20;87.00;;;;;;5073615;28;20044;-68
2023/06/01 06:43:04;;;;;;;8.68;4.40;;;18.30;87.50;;;;;;5073763;28;20039;-77
2023/06/01 06:45:29;;;;;;;7.65;3.90;;;18.50;86.00;;;;;;5073501;28;20031;-76
2023/06/01 06:47:55;;;;;;;7.55;3.88;;;18.60;85.10;;;;;;5074304;28;20029;-76
2023/06/01 06:50:21;;;;;;;10.50;4.32;;;18.60;85.00;;;;;;5072586;28;20072;-76
2023/06/01 06:52:46;;;;;;;11.95;4.65;;;18.70;85.00;;;;;;5074008;28;20040;-76
2023/06/01 06:55:12;;;;;;;8.20;4.38;;;18.80;84.10;;;;;;5072849;28;20112;-76
2023/06/01 06:57:39;;;;;;;11.48;4.13;;;18.90;84.40;;;;;;5079552;28;20045;-75
2023/06/01 07:00:07;;;;;;;7.43;3.70;;;18.90;84.70;;;;;;5072773;28;20040;-76
2023/06/01 07:02:32;;;;;;;8.68;3.75;;;18.90;84.40;;;;;;5074014;28;20028;-76
2023/06/01 07:04:58;;;;;;;9.20;3.72;;;19.00;84.10;;;;;;5073146;28;20469;-77
2023/06/01 07:07:23;;;;;;;5.35;3.25;;;19.20;82.20;;;;;;5072724;28;20665;-77
2023/06/01 07:09:49;;;;;;;11.30;4.05;;;19.30;81.40;;;;;;5072904;28;20043;-76
2023/06/01 07:12:15;;;;;;;9.55;3.65;;;19.50;81.00;;;;;;5072622;28;20031;-77
2023/06/01 07:14:41;;;;;;;10.48;3.50;;;19.70;80.90;;;;;;5073116;28;20505;-77
2023/06/01 07:17:06;;;;;;;6.38;3.33;;;19.80;80.80;;;;;;5073145;28;20373;-77
2023/06/01 07:19:35;;;;;;;8.45;3.85;;;19.90;81.50;;;;;;5072950;28;20117;-76
2023/06/01 07:22:00;;;;;;;9.57;4.45;;;20.00;80.80;;;;;;5073518;28;20036;-76
2023/06/01 07:24:27;;;;;;;7.75;3.80;;;20.10;80.60;;;;;;5072566;28;20385;-76
2023/06/01 07:26:53;;;;;;;9.75;4.03;;;20.20;80.30;;;;;;5073575;28;20024;-76
2023/06/01 07:29:20;;;;;;;10.73;4.20;;;20.30;80.70;;;;;;5071860;28;20477;-76
2023/06/01 07:31:46;;;;;;;8.95;4.20;;;20.30;80.10;;;;;;5073403;28;20470;-76
2023/06/01 07:34:12;;;;;;;8.98;4.05;;;20.40;79.70;;;;;;5083571;28;20059;-75
2023/06/01 07:36:38;;;;;;;7.93;3.83;;;20.50;79.40;;;;;;5072325;28;20043;-75
2023/06/01 07:39:08;;;;;;;8.20;4.35;;;20.70;78.30;;;;;;5072112;28;20024;-76
2023/06/01 07:41:34;;;;;;;11.20;3.50;;;20.80;78.00;;;;;;5073203;28;20473;-75
2023/06/01 07:44:00;;;;;;;8.88;4.00;;;20.90;78.00;;;;;;5072658;28;20051;-76
2023/06/01 07:46:25;;;;;;;11.38;4.22;;;21.00;77.80;;;;;;5072502;28;20411;-75
2023/06/01 07:48:51;;;;;;;8.73;4.28;;;21.20;77.50;;;;;;5072616;28;20040;-76
2023/06/01 07:51:17;;;;;;;10.23;4.32;;;21.30;76.80;;;;;;5071637;28;20087;-77
2023/06/01 07:53:43;;;;;;;8.75;3.70;;;21.30;75.50;;;;;;5072882;28;20043;-76
2023/06/01 07:56:08;;;;;;;7.72;3.90;;;21.30;75.80;;;;;;5075332;28;20028;-77
2023/06/01 07:58:35;;;;;;;5.88;3.53;;;21.50;75.90;;;;;;5074180;28;20032;-75
2023/06/01 08:01:01;;;;;;;9.18;4.05;;;21.40;76.00;;;;;;5072482;28;20027;-76
2023/06/01 08:03:26;;;;;;;6.72;4.15;;;21.50;75.60;;;;;;5058032;28;20318;-76
2023/06/01 08:05:57;;;;;;;10.93;3.83;;;21.50;75.60;;;;;;5072473;28;20473;-75
2023/06/01 08:08:23;;;;;;;8.35;3.97;;;21.60;75.40;;;;;;5053288;28;20029;-76
2023/06/01 08:10:49;;;;;;;10.55;4.15;;;21.70;75.60;;;;;;5054631;28;20029;-75
2023/06/01 08:13:15;;;;;;;8.73;3.90;;;21.70;76.10;;;;;;5070757;28;20420;-76
2023/06/01 08:15:42;;;;;;;7.85;3.70;;;21.80;75.20;;;;;;5072613;28;20024;-76
2023/06/01 08:18:08;;;;;;;10.82;4.53;;;22.00;75.50;;;;;;5071099;28;20028;-77
2023/06/01 08:20:35;;;;;;;7.40;4.10;;;22.10;75.90;;;;;;5071844;28;20448;-77
2023/06/01 08:23:02;;;;;;;8.80;4.22;;;22.20;74.70;;;;;;5071988;28;20040;-75
2023/06/01 08:25:28;;;;;;;10.88;4.00;;;22.30;74.30;;;;;;5071160;28;20029;-76
2023/06/01 08:27:54;;;;;;;9.65;4.07;;;22.40;74.30;;;;;;5076511;28;20016;-75
2023/06/01 08:30:20;;;;;;;7.28;4.35;;;22.50;74.80;;;;;;5078234;28;20385;-75
2023/06/01 08:32:45;;;;;;;11.35;4.82;;;22.60;73.70;;;;;;5072055;28;20029;-75
2023/06/01 08:35:11;;;;;;;9.27;4.63;;;22.70;73.60;;;;;;5070417;28;20096;-76
2023/06/01 08:37:36;;;;;;;9.20;3.92;;;22.80;74.20;;;;;;5071453;28;20028;-75
2023/06/01 08:40:05;;;;;;;11.55;4.32;;;23.00;73.30;;;;;;5071270;28;20039;-77
2023/06/01 08:42:44;;;;;;;11.73;4.93;;;23.20;72.40;;;;;;5071168;28;20025;-75
2023/06/01 08:45:11;;;;;;;7.73;4.67;;;23.20;72.30;;;;;;5052635;28;20097;-76
2023/06/01 08:47:38;;;;;;;8.77;4.82;;;23.20;72.50;;;;;;5071607;28;20255;-76
2023/06/01 08:50:04;;;;;;;7.55;4.50;;;23.20;72.00;;;;;;5070169;28;20424;-77
2023/06/01 08:52:32;;;;;;;9.63;4.53;;;23.30;72.00;;;;;;5071045;28;20074;-76
2023/06/01 08:54:59;;;;;;;9.48;4.35;;;23.40;71.70;;;;;;5071189;28;20021;-76
2023/06/01 08:57:25;;;;;;;7.47;4.28;;;23.40;71.90;;;;;;5075960;28;20025;-75
2023/06/01 08:59:51;;;;;;;7.40;4.65;;;23.50;71.50;;;;;;5070950;28;20033;-76
2023/06/01 09:02:17;;;;;;;23.42;5.00;;;23.70;71.70;;;;;;5079361;28;20044;-76
2023/06/01 09:04:44;;;;;;;27.52;4.85;;;23.70;71.50;;;;;;5070938;28;20036;-75
2023/06/01 09:07:13;;;;;;;8.63;4.80;;;23.70;71.60;;;;;;5071135;28;20059;-76
2023/06/01 09:09:39;;;;;;;7.43;4.80;;;23.80;71.10;;;;;;5070794;28;20377;-76
2023/06/01 09:12:19;;;;;;;12.88;4.45;;;23.80;71.30;;;;;;5071184;28;20031;-78
2023/06/01 09:14:46;;;;;;;61.50;7.30;;;23.80;71.40;;;;;;5070967;28;20025;-76
2023/06/01 09:17:22;;;;;;;10.75;4.53;;;24.00;71.50;;;;;;5059734;28;20074;-76
2023/06/01 09:19:49;;;;;;;11.38;4.68;;;24.00;70.90;;;;;;5070070;28;20072;-75
2023/06/01 09:22:15;;;;;;;8.20;4.28;;;24.00;71.00;;;;;;5052497;28;20046;-76
2023/06/01 09:24:54;;;;;;;9.07;4.90;;;24.10;70.50;;;;;;5070640;28;20028;-77
2023/06/01 09:27:19;;;;;;;9.52;4.78;;;24.10;70.80;;;;;;5070832;28;20029;-76
2023/06/01 09:29:53;;;;;;;8.32;4.50;;;24.10;70.60;;;;;;5082932;28;20051;-75
2023/06/01 09:32:20;;;;;;;9.32;4.90;;;24.10;71.00;;;;;;5070455;28;20067;-75
2023/06/01 09:34:46;;;;;;;12.18;5.03;;;24.30;70.90;;;;;;5070649;28;20025;-75
2023/06/01 09:37:13;;;;;;;18.65;5.00;;;24.40;70.20;;;;;;5070549;28;20108;-77
2023/06/01 09:39:39;;;;;;;11.95;5.03;;;24.70;70.40;;;;;;5070377;28;20025;-76
2023/06/01 09:42:06;;;;;;;8.38;5.22;;;24.90;70.10;;;;;;5070715;28;20374;-76
2023/06/01 09:44:41;;;;;;;7.35;4.13;;;25.00;69.30;;;;;;5070903;28;20028;-76
2023/06/01 09:47:12;;;;;;;11.40;5.13;;;25.00;69.90;;;;;;5057378;28;20073;-77
2023/06/01 09:49:40;;;;;;;10.32;4.43;;;25.00;69.50;;;;;;5070418;28;20110;-76
2023/06/01 09:52:06;;;;;;;20.08;4.97;;;25.10;69.60;;;;;;5070089;28;20049;-77
2023/06/01 09:54:45;;;;;;;10.70;4.70;;;25.10;70.20;;;;;;5070838;28;20044;-77
2023/06/01 09:57:12;;;;;;;57.40;7.22;;;25.20;69.80;;;;;;5075877;28;20527;-77
2023/06/01 09:59:45;;;;;;;10.70;5.22;;;25.30;72.10;;;;;;5071312;28;20055;-74
2023/06/01 10:02:17;;;;;;;11.73;5.07;;;25.60;69.50;;;;;;5073970;28;20571;-75
2023/06/01 10:04:53;;;;;;;155.25;10.55;;;25.70;68.70;;;;;;5074400;28;20032;-76
2023/06/01 10:07:20;;;;;;;11.80;5.22;;;25.90;69.10;;;;;;5073954;28;20028;-76
2023/06/01 10:09:50;;;;;;;15.13;4.55;;;26.10;68.40;;;;;;5074865;28;20397;-76
2023/06/01 10:12:16;;;;;;;10.23;5.15;;;26.30;69.10;;;;;;5074411;28;20032;-76
2023/06/01 10:14:42;;;;;;;10.68;4.93;;;26.40;68.60;;;;;;5074808;28;20350;-77
2023/06/01 10:17:09;;;;;;;9.32;4.63;;;26.50;67.70;;;;;;5074130;28;20033;-76
2023/06/01 10:19:39;;;;;;;8.88;4.53;;;26.40;67.80;;;;;;5074865;28;20036;-76
2023/06/01 10:22:06;;;;;;;11.00;4.50;;;26.50;72.60;;;;;;5074267;28;20036;-75
2023/06/01 10:24:34;;;;;;;10.38;4.80;;;26.60;72.20;;;;;;5073925;28;20477;-76
2023/06/01 10:27:09;;;;;;;8.10;5.05;;;26.70;72.90;;;;;;5074905;28;20439;-77
2023/06/01 10:29:35;;;;;;;10.23;4.88;;;26.80;72.70;;;;;;5087607;28;20032;-77
2023/06/01 10:32:01;;;;;;;10.02;4.20;;;26.70;72.10;;;;;;5074692;28;20024;-77
2023/06/01 10:34:44;;;;;;;9.10;4.85;;;26.60;72.00;;;;;;5072970;28;20033;-75
2023/06/01 10:37:14;;;;;;;8.90;4.93;;;26.60;72.90;;;;;;5073559;28;20036;-75
2023/06/01 10:39:40;;;;;;;7.10;4.68;;;26.70;75.40;;;;;;5073724;28;20036;-75
2023/06/01 10:42:14;;;;;;;11.10;4.90;;;26.70;76.40;;;;;;5055639;28;20032;-78
2023/06/01 10:44:40;;;;;;;5.93;4.40;;;26.70;76.20;;;;;;5074436;28;20028;-77
2023/06/01 10:47:12;;;;;;;10.43;4.60;;;26.70;66.40;;;;;;5074025;28;20111;-77
2023/06/01 10:49:47;;;;;;;9.30;4.63;;;26.80;66.60;;;;;;5074189;28;20024;-76
2023/06/01 10:52:52;;;;;;;6.75;4.15;;;27.00;68.60;;;;;;5073203;28;20044;-77
2023/06/01 10:55:20;;;;;;;12.43;4.63;;;27.30;71.00;;;;;;4990812;28;20061;-76
2023/06/01 10:57:47;;;;;;;13.32;5.07;;;27.30;70.60;;;;;;4996785;28;20113;-78
2023/06/01 11:00:29;;;;;;;10.80;4.97;;;27.20;70.90;;;;;;4989945;28;20038;-75
2023/06/01 11:03:05;;;;;;;9.23;4.85;;;27.10;68.30;;;;;;4991904;28;20120;-75
2023/06/01 11:05:42;;;;;;;7.68;5.05;;;26.90;67.00;;;;;;4992060;28;20126;-77
2023/06/01 11:08:29;;;;;;;9.90;4.82;;;26.90;67.60;;;;;;4991502;28;20468;-77
2023/06/01 11:10:59;;;;;;;8.60;4.68;;;27.00;66.90;;;;;;4978930;28;20042;-76
2023/06/01 11:13:35;;;;;;;;;;;27.00;68.30;;;;;;4991195;28;20260;-77
2023/06/01 11:16:20;;;;;;;10.05;4.18;;;27.10;72.90;;;;;;4992063;28;19989;-77
2023/06/01 11:18:58;;;;;;;10.55;4.80;;;27.30;64.60;;;;;;4991527;28;20034;-76
2023/06/01 11:21:25;;;;;;;9.85;4.85;;;27.50;63.90;;;;;;4991156;28;20034;-77
2023/06/01 11:23:53;;;;;;;9.30;4.70;;;27.50;63.10;;;;;;4991561;28;20034;-76
2023/06/01 11:26:25;;;;;;;7.57;4.90;;;27.70;70.70;;;;;;5033838;28;20401;-76
2023/06/01 11:28:52;;;;;;;7.47;4.65;;;27.80;62.30;;;;;;5073385;28;20423;-76
2023/06/01 11:31:22;;;;;;;10.55;4.57;;;28.10;62.20;;;;;;5072116;28;20465;-76
2023/06/01 11:33:57;;;;;;;8.55;5.03;;;28.20;61.60;;;;;;5073024;28;20044;-76
2023/06/01 11:36:26;;;;;;;7.80;5.35;;;28.20;62.30;;;;;;5072251;28;20840;-76
2023/06/01 11:38:54;;;;;;;10.30;4.82;;;28.40;61.90;;;;;;5073568;28;20081;-76
2023/06/01 11:41:23;;;;;;;10.32;4.82;;;28.50;61.20;;;;;;5047627;28;20385;-77
2023/06/01 11:43:56;;;;;;;10.88;5.05;;;28.40;62.60;;;;;;5069350;28;20032;-77
2023/06/01 11:46:22;;;;;;;9.20;4.82;;;28.50;62.60;;;;;;5073886;28;20064;-76
2023/06/01 11:49:03;;;;;;;9.93;4.95;;;28.60;62.30;;;;;;5073861;28;20461;-77
2023/06/01 11:51:37;;;;;;;12.63;5.00;;;28.50;62.30;;;;;;5061522;28;20109;-77
2023/06/01 11:54:04;;;;;;;6.20;4.82;;;28.40;62.20;;;;;;5072529;28;20029;-76
2023/06/01 11:56:30;;;;;;;6.63;4.43;;;28.30;63.00;;;;;;5076701;28;20028;-77
2023/06/01 11:59:00;;;;;;;12.02;4.90;;;28.30;62.70;;;;;;5072962;28;20043;-76
2023/06/01 12:01:27;;;;;;;6.05;4.78;;;28.50;62.20;;;;;;5073802;28;20028;-75
2023/06/01 12:03:53;;;;;;;7.43;4.47;;;28.70;62.20;;;;;;5076687;28;20041;-76
2023/06/01 12:06:23;;;;;;;8.32;4.22;;;28.80;61.30;;;;;;5064430;28;20052;-76
2023/06/01 12:08:54;;;;;;;12.68;5.00;;;28.90;61.10;;;;;;5077208;28;20119;-76
2023/06/01 12:11:27;;;;;;;8.75;4.03;;;29.10;60.70;;;;;;5077096;28;20036;-76
2023/06/01 12:13:57;;;;;;;5.85;4.35;;;29.00;60.10;;;;;;5072919;28;20020;-75
2023/06/01 12:16:25;;;;;;;;;;;29.10;59.80;;;;;;5072324;28;20060;-75
2023/06/01 12:18:51;;;;;;;8.60;4.80;;;29.10;60.20;;;;;;5071971;28;19987;-75
2023/06/01 12:21:17;;;;;;;6.55;4.75;;;29.00;59.20;;;;;;5071549;28;20330;-77
2023/06/01 12:23:49;;;;;;;7.78;4.40;;;28.80;58.90;;;;;;5083781;28;20028;-76
2023/06/01 12:26:15;;;;;;;8.73;4.43;;;28.80;57.70;;;;;;5072164;28;20021;-76
2023/06/01 12:28:52;;;;;;;6.07;4.30;;;28.80;57.50;;;;;;5083155;28;20024;-76
2023/06/01 12:31:19;;;;;;;11.90;4.80;;;28.90;59.00;;;;;;5040953;28;20032;-77
2023/06/01 12:33:45;;;;;;;18.90;4.90;;;28.90;60.30;;;;;;5071560;28;20024;-77
2023/06/01 12:36:32;;;;;;;7.75;4.47;;;29.00;60.90;;;;;;5071097;28;20533;-76
2023/06/01 12:38:59;;;;;;;8.30;4.18;;;29.30;60.10;;;;;;5071595;28;20572;-77
2023/06/01 12:41:25;;;;;;;5.47;4.10;;;29.30;59.10;;;;;;5071354;28;20025;-75
2023/06/01 12:43:52;;;;;;;7.60;4.20;;;29.30;60.20;;;;;;5071244;28;20466;-77
2023/06/01 12:46:27;;;;;;;9.43;4.40;;;29.10;59.80;;;;;;5071293;28;20032;-76
2023/06/01 12:49:13;;;;;;;8.07;4.40;;;29.00;60.30;;;;;;5071106;28;20056;-76
2023/06/01 12:51:39;;;;;;;7.13;4.85;;;28.90;59.00;;;;;;5071515;28;20059;-76
2023/06/01 12:54:04;;;;;;;9.15;4.85;;;28.80;59.30;;;;;;5070672;28;20151;-76
2023/06/01 12:56:30;;;;;;;8.40;4.60;;;28.80;59.30;;;;;;5076025;28;20465;-76